Ballantine, Montana
Current Conditions -  °F | °C
As of 1:53 AM on Sunday 21 Dec 2014 (Local Time) from KBIL Reporting Station
Overcast Overcast  
Wind Chill: 25°   Ceiling: 15000
Heat Index: 33°   Visibility: 10mi
Dew Point: 22°   Wind: 10mph
Humidity: 64%   Direction: 230°SW
Pressure: 29.55"   Gusts: NA
Location:  45.95°N, 108.15°W
Report Text: KBIL 210853Z 23009KT 10SM FEW120 OVC150 01/M06 A2955 RMK AO2 SLP027 T00061056 58040
Loading
Personal Weather Stations






























Interactive Weather Map New forecast layout! Learn more

10-Day Weather Forecast

Advertisements
Track Severe Weather on mobile